Horton, Kansas
Current Conditions -  °F | °C
As of 8:01 AM on Thursday 23 Oct 2014 (Local Time) from KFNB Reporting Station
Few Clouds Few Clouds  
Wind Chill: 61°   Ceiling: Unl
Heat Index: 61°   Visibility: 9mi
Dew Point: 59°   Wind: 13mph
Humidity: 93%   Direction: 210°SSW
Pressure: 30.04"   Gusts: NA
Location:  39.66°N, 95.53°W
Report Text: KFNB 231301Z AUTO 21011KT 9SM FEW027 16/15 A3004 RMK AO2 T01610150
Loading
Personal Weather Stations






























Interactive Weather Map
Tropical Storm Tracking
New forecast layout! Learn more

10-Day Weather Forecast

Advertisements
Track Severe Weather on mobile